sensor_id;sensor_type;location;lat;lon;timestamp;pressure;altitude;pressure_sealevel;temperature;humidity
53270;BME280;39159;45.634;9.420;2023-02-12T00:02:03;100425.88;;;1.39;64.89
53270;BME280;39159;45.634;9.420;2023-02-12T00:04:29;100428.16;;;1.42;64.52
53270;BME280;39159;45.634;9.420;2023-02-12T00:06:54;100428.13;;;1.49;64.31
53270;BME280;39159;45.634;9.420;2023-02-12T00:09:20;100423.31;;;1.58;63.96
53270;BME280;39159;45.634;9.420;2023-02-12T00:11:45;100420.59;;;1.64;63.67
53270;BME280;39159;45.634;9.420;2023-02-12T00:14:11;100423.06;;;1.73;64.10
53270;BME280;39159;45.634;9.420;2023-02-12T00:16:36;100430.50;;;1.77;64.38
53270;BME280;39159;45.634;9.420;2023-02-12T00:19:02;100431.94;;;1.80;64.36
53270;BME280;39159;45.634;9.420;2023-02-12T00:21:27;100415.56;;;1.81;64.33
53270;BME280;39159;45.634;9.420;2023-02-12T00:23:53;100420.97;;;1.81;64.42
53270;BME280;39159;45.634;9.420;2023-02-12T00:26:21;100420.78;;;1.76;64.20
53270;BME280;39159;45.634;9.420;2023-02-12T00:28:47;100417.31;;;1.69;65.56
53270;BME280;39159;45.634;9.420;2023-02-12T00:31:18;100419.78;;;1.64;65.67
53270;BME280;39159;45.634;9.420;2023-02-12T00:33:44;100419.81;;;1.57;66.39
53270;BME280;39159;45.634;9.420;2023-02-12T00:36:17;100422.53;;;1.51;66.81
53270;BME280;39159;45.634;9.420;2023-02-12T00:38:43;100419.66;;;1.45;66.50
53270;BME280;39159;45.634;9.420;2023-02-12T00:41:09;100416.78;;;1.40;66.60
53270;BME280;39159;45.634;9.420;2023-02-12T00:43:34;100424.44;;;1.37;66.39
53270;BME280;39159;45.634;9.420;2023-02-12T00:46:00;100420.75;;;1.31;66.59
53270;BME280;39159;45.634;9.420;2023-02-12T00:48:25;100416.38;;;1.30;66.92
53270;BME280;39159;45.634;9.420;2023-02-12T00:50:51;100418.25;;;1.23;67.45
53270;BME280;39159;45.634;9.420;2023-02-12T00:53:16;100416.00;;;1.13;68.36
53270;BME280;39159;45.634;9.420;2023-02-12T00:55:42;100415.81;;;1.01;69.01
53270;BME280;39159;45.634;9.420;2023-02-12T00:58:08;100422.44;;;0.99;69.23
53270;BME280;39159;45.634;9.420;2023-02-12T01:00:33;100418.50;;;1.01;68.84
53270;BME280;39159;45.634;9.420;2023-02-12T01:02:59;100413.94;;;1.02;68.75
53270;BME280;39159;45.634;9.420;2023-02-12T01:05:24;100414.19;;;1.00;67.74
53270;BME280;39159;45.634;9.420;2023-02-12T01:07:51;100412.94;;;0.96;67.43
53270;BME280;39159;45.634;9.420;2023-02-12T01:10:17;100419.94;;;0.97;67.08
53270;BME280;39159;45.634;9.420;2023-02-12T01:12:42;100423.88;;;1.01;67.03
53270;BME280;39159;45.634;9.420;2023-02-12T01:15:08;100412.50;;;0.99;66.46
53270;BME280;39159;45.634;9.420;2023-02-12T01:17:35;100427.00;;;1.05;66.15
53270;BME280;39159;45.634;9.420;2023-02-12T01:20:00;100423.47;;;1.11;66.04
53270;BME280;39159;45.634;9.420;2023-02-12T01:22:26;100426.53;;;1.21;65.97
53270;BME280;39159;45.634;9.420;2023-02-12T01:24:51;100423.22;;;1.26;65.29
53270;BME280;39159;45.634;9.420;2023-02-12T01:27:17;100420.75;;;1.24;65.21
53270;BME280;39159;45.634;9.420;2023-02-12T01:29:42;100420.13;;;1.22;65.44
53270;BME280;39159;45.634;9.420;2023-02-12T01:32:11;100415.38;;;1.24;65.43
53270;BME280;39159;45.634;9.420;2023-02-12T01:34:37;100417.44;;;1.29;65.26
53270;BME280;39159;45.634;9.420;2023-02-12T01:37:02;100418.44;;;1.28;65.56
53270;BME280;39159;45.634;9.420;2023-02-12T01:39:28;100413.28;;;1.20;65.91
53270;BME280;39159;45.634;9.420;2023-02-12T01:41:53;100418.06;;;1.18;65.85
53270;BME280;39159;45.634;9.420;2023-02-12T01:44:24;100422.00;;;1.15;65.38
53270;BME280;39159;45.634;9.420;2023-02-12T01:47:04;100417.66;;;1.14;65.24
53270;BME280;39159;45.634;9.420;2023-02-12T01:49:39;100418.28;;;1.10;65.30
53270;BME280;39159;45.634;9.420;2023-02-12T01:52:15;100411.69;;;0.99;65.71
53270;BME280;39159;45.634;9.420;2023-02-12T01:54:44;100415.41;;;1.05;65.30
53270;BME280;39159;45.634;9.420;2023-02-12T01:57:11;100408.34;;;1.10;64.96
53270;BME280;39159;45.634;9.420;2023-02-12T01:59:39;100398.63;;;1.16;64.59
53270;BME280;39159;45.634;9.420;2023-02-12T02:02:05;100400.69;;;1.20;64.59
53270;BME280;39159;45.634;9.420;2023-02-12T02:04:36;100397.56;;;1.30;64.16
53270;BME280;39159;45.634;9.420;2023-02-12T02:07:05;100392.59;;;1.34;63.86
53270;BME280;39159;45.634;9.420;2023-02-12T02:09:34;100390.28;;;1.37;63.65
53270;BME280;39159;45.634;9.420;2023-02-12T02:12:00;100396.72;;;1.36;64.17
53270;BME280;39159;45.634;9.420;2023-02-12T02:14:46;100397.75;;;1.29;64.21
53270;BME280;39159;45.634;9.420;2023-02-12T02:28:32;100375.63;;;1.27;65.91
53270;BME280;39159;45.634;9.420;2023-02-12T02:31:13;100369.44;;;1.26;65.84
53270;BME280;39159;45.634;9.420;2023-02-12T02:34:02;100368.16;;;1.29;65.66
53270;BME280;39159;45.634;9.420;2023-02-12T02:45:15;100354.06;;;1.40;62.80
53270;BME280;39159;45.634;9.420;2023-02-12T02:50:19;100352.38;;;1.52;61.28
53270;BME280;39159;45.634;9.420;2023-02-12T02:52:58;100345.50;;;1.63;60.07
53270;BME280;39159;45.634;9.420;2023-02-12T02:55:35;100342.97;;;1.68;59.87
53270;BME280;39159;45.634;9.420;2023-02-12T02:58:38;100340.44;;;1.73;59.91
53270;BME280;39159;45.634;9.420;2023-02-12T03:01:19;100330.91;;;1.77;59.79
53270;BME280;39159;45.634;9.420;2023-02-12T03:03:50;100326.34;;;1.78;59.83
53270;BME280;39159;45.634;9.420;2023-02-12T03:06:24;100326.13;;;1.79;59.77
53270;BME280;39159;45.634;9.420;2023-02-12T03:08:55;100323.06;;;1.76;59.87
53270;BME280;39159;45.634;9.420;2023-02-12T03:11:26;100335.69;;;1.75;60.19
53270;BME280;39159;45.634;9.420;2023-02-12T03:14:00;100333.44;;;1.72;60.57
53270;BME280;39159;45.634;9.420;2023-02-12T03:16:31;100338.22;;;1.63;61.66
53270;BME280;39159;45.634;9.420;2023-02-12T03:19:14;100348.63;;;1.53;62.60
53270;BME280;39159;45.634;9.420;2023-02-12T03:21:57;100350.66;;;1.58;62.73
53270;BME280;39159;45.634;9.420;2023-02-12T03:24:32;100351.53;;;1.58;62.61
53270;BME280;39159;45.634;9.420;2023-02-12T03:27:08;100351.47;;;1.65;62.70
53270;BME280;39159;45.634;9.420;2023-02-12T03:29:35;100339.41;;;1.74;62.44
53270;BME280;39159;45.634;9.420;2023-02-12T03:32:45;100333.19;;;1.80;62.67
53270;BME280;39159;45.634;9.420;2023-02-12T03:37:57;100346.56;;;1.94;62.77
53270;BME280;39159;45.634;9.420;2023-02-12T03:41:05;100333.47;;;1.97;62.69
53270;BME280;39159;45.634;9.420;2023-02-12T03:43:53;100330.78;;;1.97;62.32
53270;BME280;39159;45.634;9.420;2023-02-12T03:46:21;100335.13;;;1.98;62.27
53270;BME280;39159;45.634;9.420;2023-02-12T03:51:29;100333.88;;;2.01;62.42
53270;BME280;39159;45.634;9.420;2023-02-12T03:53:57;100343.81;;;2.00;62.29
53270;BME280;39159;45.634;9.420;2023-02-12T03:56:27;100347.16;;;1.96;62.25
53270;BME280;39159;45.634;9.420;2023-02-12T03:58:56;100342.19;;;1.93;63.10
53270;BME280;39159;45.634;9.420;2023-02-12T04:01:21;100340.81;;;1.83;63.50
53270;BME280;39159;45.634;9.420;2023-02-12T04:03:47;100338.97;;;1.77;63.79
53270;BME280;39159;45.634;9.420;2023-02-12T04:06:22;100333.44;;;1.72;64.02
53270;BME280;39159;45.634;9.420;2023-02-12T04:08:48;100340.28;;;1.68;64.47
53270;BME280;39159;45.634;9.420;2023-02-12T04:11:35;100337.56;;;1.75;64.36
53270;BME280;39159;45.634;9.420;2023-02-12T04:27:59;100334.28;;;1.66;65.28
53270;BME280;39159;45.634;9.420;2023-02-12T04:30:31;100339.50;;;1.61;65.77
53270;BME280;39159;45.634;9.420;2023-02-12T04:33:07;100345.28;;;1.58;65.87
53270;BME280;39159;45.634;9.420;2023-02-12T04:35:43;100355.84;;;1.59;65.96
53270;BME280;39159;45.634;9.420;2023-02-12T04:38:20;100358.94;;;1.63;65.83
53270;BME280;39159;45.634;9.420;2023-02-12T04:40:47;100346.78;;;1.54;66.30
53270;BME280;39159;45.634;9.420;2023-02-12T04:43:13;100346.97;;;1.52;66.15
53270;BME280;39159;45.634;9.420;2023-02-12T04:45:38;100351.94;;;1.55;66.49
53270;BME280;39159;45.634;9.420;2023-02-12T04:48:05;100346.16;;;1.52;66.36
53270;BME280;39159;45.634;9.420;2023-02-12T04:50:41;100342.03;;;1.49;66.62
53270;BME280;39159;45.634;9.420;2023-02-12T04:53:08;100344.13;;;1.47;66.81
53270;BME280;39159;45.634;9.420;2023-02-12T04:55:33;100347.22;;;1.44;67.71
53270;BME280;39159;45.634;9.420;2023-02-12T04:57:59;100342.06;;;1.42;67.74
53270;BME280;39159;45.634;9.420;2023-02-12T05:00:25;100335.47;;;1.38;68.26
53270;BME280;39159;45.634;9.420;2023-02-12T05:02:50;100336.09;;;1.34;68.56
53270;BME280;39159;45.634;9.420;2023-02-12T05:05:16;100340.63;;;1.33;68.60
53270;BME280;39159;45.634;9.420;2023-02-12T05:07:41;100335.50;;;1.32;68.38
53270;BME280;39159;45.634;9.420;2023-02-12T05:10:07;100335.25;;;1.33;68.05
53270;BME280;39159;45.634;9.420;2023-02-12T05:12:33;100341.50;;;1.34;67.59
53270;BME280;39159;45.634;9.420;2023-02-12T05:14:58;100340.44;;;1.35;67.45
53270;BME280;39159;45.634;9.420;2023-02-12T05:17:24;100340.44;;;1.35;67.06
53270;BME280;39159;45.634;9.420;2023-02-12T05:19:50;100342.91;;;1.36;67.59
53270;BME280;39159;45.634;9.420;2023-02-12T05:22:16;100338.97;;;1.39;66.86
53270;BME280;39159;45.634;9.420;2023-02-12T05:24:41;100330.91;;;1.39;66.82
53270;BME280;39159;45.634;9.420;2023-02-12T05:27:07;100334.22;;;1.41;66.93
53270;BME280;39159;45.634;9.420;2023-02-12T05:29:34;100332.53;;;1.40;66.89
53270;BME280;39159;45.634;9.420;2023-02-12T05:31:59;100331.72;;;1.39;67.06
53270;BME280;39159;45.634;9.420;2023-02-12T05:34:24;100332.13;;;1.43;67.04
53270;BME280;39159;45.634;9.420;2023-02-12T05:36:50;100320.94;;;1.46;67.04
53270;BME280;39159;45.634;9.420;2023-02-12T05:39:15;100318.03;;;1.48;66.93
53270;BME280;39159;45.634;9.420;2023-02-12T05:41:41;100313.47;;;1.48;67.14
53270;BME280;39159;45.634;9.420;2023-02-12T05:44:06;100318.84;;;1.48;66.92
53270;BME280;39159;45.634;9.420;2023-02-12T05:46:32;100318.66;;;1.50;66.99
53270;BME280;39159;45.634;9.420;2023-02-12T05:48:57;100320.53;;;1.49;67.03
53270;BME280;39159;45.634;9.420;2023-02-12T05:51:24;100310.38;;;1.44;67.18
53270;BME280;39159;45.634;9.420;2023-02-12T05:53:54;100313.50;;;1.41;67.83
53270;BME280;39159;45.634;9.420;2023-02-12T05:56:23;100319.09;;;1.40;67.78
53270;BME280;39159;45.634;9.420;2023-02-12T05:58:54;100322.22;;;1.37;68.21
53270;BME280;39159;45.634;9.420;2023-02-12T06:01:23;100320.34;;;1.37;68.32
53270;BME280;39159;45.634;9.420;2023-02-12T06:03:50;100323.66;;;1.39;68.39
53270;BME280;39159;45.634;9.420;2023-02-12T06:06:16;100319.72;;;1.42;68.81
53270;BME280;39159;45.634;9.420;2023-02-12T06:08:41;100332.13;;;1.43;68.59
53270;BME280;39159;45.634;9.420;2023-02-12T06:11:10;100339.56;;;1.48;69.08
53270;BME280;39159;45.634;9.420;2023-02-12T06:13:36;100343.47;;;1.52;68.46
53270;BME280;39159;45.634;9.420;2023-02-12T06:16:02;100344.69;;;1.56;68.39
53270;BME280;39159;45.634;9.420;2023-02-12T06:18:28;100335.56;;;1.57;67.95
53270;BME280;39159;45.634;9.420;2023-02-12T06:20:54;100335.78;;;1.55;68.02
53270;BME280;39159;45.634;9.420;2023-02-12T06:23:23;100329.78;;;1.53;67.98
53270;BME280;39159;45.634;9.420;2023-02-12T06:25:50;100335.16;;;1.53;68.17
53270;BME280;39159;45.634;9.420;2023-02-12T06:28:16;100330.84;;;1.52;68.06
53270;BME280;39159;45.634;9.420;2023-02-12T06:30:41;100333.31;;;1.54;68.31
53270;BME280;39159;45.634;9.420;2023-02-12T06:33:07;100331.88;;;1.51;68.81
53270;BME280;39159;45.634;9.420;2023-02-12T06:35:36;100332.09;;;1.50;69.25
53270;BME280;39159;45.634;9.420;2023-02-12T06:38:02;100339.56;;;1.48;69.51
53270;BME280;39159;45.634;9.420;2023-02-12T06:40:28;100351.13;;;1.48;69.15
53270;BME280;39159;45.634;9.420;2023-02-12T06:42:53;100357.13;;;1.50;69.05
53270;BME280;39159;45.634;9.420;2023-02-12T06:45:19;100356.94;;;1.52;69.83
53270;BME280;39159;45.634;9.420;2023-02-12T06:47:44;100367.88;;;1.95;98.30
53270;BME280;39159;45.634;9.420;2023-02-12T06:50:10;100369.66;;;2.08;86.34
53270;BME280;39159;45.634;9.420;2023-02-12T06:52:35;100367.63;;;2.28;78.54
53270;BME280;39159;45.634;9.420;2023-02-12T06:55:01;100371.78;;;2.56;78.95
53270;BME280;39159;45.634;9.420;2023-02-12T06:57:28;100383.50;;;2.68;74.63
53270;BME280;39159;45.634;9.420;2023-02-12T06:59:54;100385.53;;;2.73;72.87
53270;BME280;39159;45.634;9.420;2023-02-12T07:02:20;100383.94;;;2.65;68.08
53270;BME280;39159;45.634;9.420;2023-02-12T07:04:45;100392.53;;;2.99;72.24
53270;BME280;39159;45.634;9.420;2023-02-12T07:07:10;100392.63;;;3.11;69.57
53270;BME280;39159;45.634;9.420;2023-02-12T07:09:36;100398.34;;;3.21;72.03
53270;BME280;39159;45.634;9.420;2023-02-12T07:12:01;100406.28;;;3.35;67.84
53270;BME280;39159;45.634;9.420;2023-02-12T07:14:27;100403.13;;;3.38;68.45
53270;BME280;39159;45.634;9.420;2023-02-12T07:16:53;100402.19;;;3.32;65.70
53270;BME280;39159;45.634;9.420;2023-02-12T07:19:19;100403.13;;;3.38;71.55
53270;BME280;39159;45.634;9.420;2023-02-12T07:21:45;100403.59;;;3.53;72.15
53270;BME280;39159;45.634;9.420;2023-02-12T07:24:11;100407.78;;;3.67;71.48
53270;BME280;39159;45.634;9.420;2023-02-12T07:26:38;100398.53;;;3.75;71.68
53270;BME280;39159;45.634;9.420;2023-02-12T07:29:03;100390.94;;;3.84;71.98
53270;BME280;39159;45.634;9.420;2023-02-12T07:31:29;100386.66;;;3.94;73.08
53270;BME280;39159;45.634;9.420;2023-02-12T07:33:56;100387.28;;;4.08;75.59
53270;BME280;39159;45.634;9.420;2023-02-12T07:36:22;100392.16;;;4.18;73.58
53270;BME280;39159;45.634;9.420;2023-02-12T07:38:48;100391.22;;;4.24;71.65
53270;BME280;39159;45.634;9.420;2023-02-12T07:41:16;100392.78;;;4.32;68.27
53270;BME280;39159;45.634;9.420;2023-02-12T07:43:44;100392.41;;;4.28;63.61
53270;BME280;39159;45.634;9.420;2023-02-12T07:48:41;100392.09;;;4.06;63.97
53270;BME280;39159;45.634;9.420;2023-02-12T07:51:09;100394.94;;;4.11;72.15
53270;BME280;39159;45.634;9.420;2023-02-12T07:53:35;100398.91;;;4.09;66.79
53270;BME280;39159;45.634;9.420;2023-02-12T07:56:12;100400.44;;;4.05;67.33
53270;BME280;39159;45.634;9.420;2023-02-12T07:58:40;100401.31;;;4.17;68.51
53270;BME280;39159;45.634;9.420;2023-02-12T08:03:37;100408.63;;;4.94;64.58
53270;BME280;39159;45.634;9.420;2023-02-12T08:06:10;100406.47;;;5.43;60.51
53270;BME280;39159;45.634;9.420;2023-02-12T08:08:36;100402.00;;;5.89;57.16
53270;BME280;39159;45.634;9.420;2023-02-12T08:11:06;100409.34;;;6.34;56.54
53270;BME280;39159;45.634;9.420;2023-02-12T08:13:34;100405.13;;;6.72;54.60
53270;BME280;39159;45.634;9.420;2023-02-12T08:16:04;100409.53;;;7.12;53.92
53270;BME280;39159;45.634;9.420;2023-02-12T08:18:31;100420.56;;;7.44;53.21
53270;BME280;39159;45.634;9.420;2023-02-12T08:21:17;100422.84;;;7.75;51.98
53270;BME280;39159;45.634;9.420;2023-02-12T08:23:44;100426.38;;;7.97;50.57
53270;BME280;39159;45.634;9.420;2023-02-12T08:26:12;100420.66;;;8.21;49.98
53270;BME280;39159;45.634;9.420;2023-02-12T08:28:41;100428.28;;;8.46;50.02
53270;BME280;39159;45.634;9.420;2023-02-12T08:31:11;100427.13;;;8.69;49.07
53270;BME280;39159;45.634;9.420;2023-02-12T08:33:36;100432.69;;;8.84;45.50
53270;BME280;39159;45.634;9.420;2023-02-12T08:36:04;100435.34;;;8.74;43.04
53270;BME280;39159;45.634;9.420;2023-02-12T08:38:31;100432.38;;;9.13;43.54
53270;BME280;39159;45.634;9.420;2023-02-12T08:41:00;100426.25;;;9.38;43.42
53270;BME280;39159;45.634;9.420;2023-02-12T08:43:26;100429.69;;;9.66;42.83
53270;BME280;39159;45.634;9.420;2023-02-12T08:45:52;100432.78;;;9.90;41.91
53270;BME280;39159;45.634;9.420;2023-02-12T08:48:19;100436.94;;;10.08;40.78
53270;BME280;39159;45.634;9.420;2023-02-12T08:50:45;100441.06;;;10.21;38.56
53270;BME280;39159;45.634;9.420;2023-02-12T08:53:11;100441.13;;;10.41;38.20
53270;BME280;39159;45.634;9.420;2023-02-12T08:55:36;100435.97;;;10.60;37.94
53270;BME280;39159;45.634;9.420;2023-02-12T08:58:02;100446.63;;;10.77;37.05
53270;BME280;39159;45.634;9.420;2023-02-12T09:00:28;100441.16;;;11.03;36.36
53270;BME280;39159;45.634;9.420;2023-02-12T09:02:53;100442.53;;;11.20;35.78
53270;BME280;39159;45.634;9.420;2023-02-12T09:05:19;100447.16;;;11.25;35.19
53270;BME280;39159;45.634;9.420;2023-02-12T09:07:44;100449.84;;;11.51;35.46
53270;BME280;39159;45.634;9.420;2023-02-12T09:10:10;100448.41;;;11.74;36.14
53270;BME280;39159;45.634;9.420;2023-02-12T09:12:35;100454.38;;;11.91;34.62
53270;BME280;39159;45.634;9.420;2023-02-12T09:15:00;100452.38;;;12.07;33.85
53270;BME280;39159;45.634;9.420;2023-02-12T09:17:26;100458.63;;;12.18;33.49
53270;BME280;39159;45.634;9.420;2023-02-12T09:19:53;100457.47;;;12.34;33.74
53270;BME280;39159;45.634;9.420;2023-02-12T09:22:18;100455.09;;;12.17;32.51
53270;BME280;39159;45.634;9.420;2023-02-12T09:24:44;100457.44;;;12.39;33.80
53270;BME280;39159;45.634;9.420;2023-02-12T09:27:09;100460.53;;;12.22;32.51
53270;BME280;39159;45.634;9.420;2023-02-12T09:29:35;100463.69;;;11.90;33.50
53270;BME280;39159;45.634;9.420;2023-02-12T09:32:00;100467.47;;;11.99;33.02
53270;BME280;39159;45.634;9.420;2023-02-12T09:34:29;100475.28;;;12.27;33.05
53270;BME280;39159;45.634;9.420;2023-02-12T09:36:55;100473.31;;;12.37;32.39
53270;BME280;39159;45.634;9.420;2023-02-12T09:39:20;100471.97;;;12.35;31.70
53270;BME280;39159;45.634;9.420;2023-02-12T09:42:02;100478.22;;;12.40;31.80
53270;BME280;39159;45.634;9.420;2023-02-12T09:52:34;100481.63;;;12.67;30.80
53270;BME280;39159;45.634;9.420;2023-02-12T09:54:59;100475.97;;;12.92;30.79
53270;BME280;39159;45.634;9.420;2023-02-12T09:57:35;100477.06;;;12.91;30.58
53270;BME280;39159;45.634;9.420;2023-02-12T10:00:18;100483.22;;;12.73;30.03
53270;BME280;39159;45.634;9.420;2023-02-12T10:02:49;100475.78;;;13.13;30.25
53270;BME280;39159;45.634;9.420;2023-02-12T10:05:30;100482.09;;;13.13;30.95
53270;BME280;39159;45.634;9.420;2023-02-12T10:17:02;100473.31;;;14.18;29.38
53270;BME280;39159;45.634;9.420;2023-02-12T10:19:54;100477.53;;;14.10;28.99
53270;BME280;39159;45.634;9.420;2023-02-12T10:22:37;100470.88;;;14.35;29.28
53270;BME280;39159;45.634;9.420;2023-02-12T10:27:53;100471.28;;;14.85;28.83
53270;BME280;39159;45.634;9.420;2023-02-12T10:30:34;100474.03;;;14.85;28.47
53270;BME280;39159;45.634;9.420;2023-02-12T10:33:08;100470.25;;;15.14;27.65
53270;BME280;39159;45.634;9.420;2023-02-12T10:35:42;100469.97;;;15.29;26.63
53270;BME280;39159;45.634;9.420;2023-02-12T10:38:19;100476.91;;;14.94;26.60
53270;BME280;39159;45.634;9.420;2023-02-12T10:40:46;100476.28;;;14.40;27.33
53270;BME280;39159;45.634;9.420;2023-02-12T10:43:12;100477.34;;;14.25;27.90
53270;BME280;39159;45.634;9.420;2023-02-12T10:45:39;100475.03;;;14.33;28.01
53270;BME280;39159;45.634;9.420;2023-02-12T10:48:09;100472.47;;;14.79;28.31
53270;BME280;39159;45.634;9.420;2023-02-12T10:53:41;100469.66;;;15.17;27.64
53270;BME280;39159;45.634;9.420;2023-02-12T10:58:57;100469.28;;;15.51;27.70
53270;BME280;39159;45.634;9.420;2023-02-12T11:01:26;100458.31;;;15.65;27.66
53270;BME280;39159;45.634;9.420;2023-02-12T11:03:57;100458.22;;;15.57;27.33
53270;BME280;39159;45.634;9.420;2023-02-12T11:06:28;100455.41;;;15.29;27.86
53270;BME280;39159;45.634;9.420;2023-02-12T11:08:55;100457.88;;;15.30;27.66
53270;BME280;39159;45.634;9.420;2023-02-12T11:11:28;100457.06;;;15.58;27.26
53270;BME280;39159;45.634;9.420;2023-02-12T11:14:03;100452.19;;;15.54;27.64
53270;BME280;39159;45.634;9.420;2023-02-12T11:16:32;100448.81;;;15.58;27.46
53270;BME280;39159;45.634;9.420;2023-02-12T11:19:17;100440.91;;;15.70;27.65
53270;BME280;39159;45.634;9.420;2023-02-12T11:21:44;100444.97;;;15.86;27.66
53270;BME280;39159;45.634;9.420;2023-02-12T11:24:27;100435.91;;;16.00;26.74
53270;BME280;39159;45.634;9.420;2023-02-12T11:27:21;100434.56;;;16.11;26.57
53270;BME280;39159;45.634;9.420;2023-02-12T11:30:13;100430.66;;;16.26;26.39
53270;BME280;39159;45.634;9.420;2023-02-12T11:32:39;100437.09;;;16.07;26.55
53270;BME280;39159;45.634;9.420;2023-02-12T11:35:19;100440.03;;;16.25;27.02
53270;BME280;39159;45.634;9.420;2023-02-12T11:37:52;100434.00;;;16.23;26.13
53270;BME280;39159;45.634;9.420;2023-02-12T11:40:22;100435.97;;;16.22;26.00
53270;BME280;39159;45.634;9.420;2023-02-12T11:42:52;100428.66;;;16.40;26.53
53270;BME280;39159;45.634;9.420;2023-02-12T11:45:21;100432.78;;;16.65;25.67
53270;BME280;39159;45.634;9.420;2023-02-12T11:47:49;100434.47;;;16.75;26.08
53270;BME280;39159;45.634;9.420;2023-02-12T11:50:30;100423.59;;;16.33;25.99
53270;BME280;39159;45.634;9.420;2023-02-12T11:53:03;100417.31;;;16.19;26.20
53270;BME280;39159;45.634;9.420;2023-02-12T11:55:35;100424.53;;;16.51;26.21
53270;BME280;39159;45.634;9.420;2023-02-12T11:58:23;100421.81;;;16.74;25.83
53270;BME280;39159;45.634;9.420;2023-02-12T12:00:57;100415.91;;;16.67;25.38
53270;BME280;39159;45.634;9.420;2023-02-12T12:08:48;100405.09;;;16.70;25.93
53270;BME280;39159;45.634;9.420;2023-02-12T12:11:37;100399.78;;;16.96;25.67
53270;BME280;39159;45.634;9.420;2023-02-12T12:17:02;100403.16;;;17.25;25.54
53270;BME280;39159;45.634;9.420;2023-02-12T12:20:21;100386.03;;;17.36;25.84
53270;BME280;39159;45.634;9.420;2023-02-12T12:33:45;100387.75;;;17.24;25.23
53270;BME280;39159;45.634;9.420;2023-02-12T12:41:26;100379.44;;;17.55;25.78
53270;BME280;39159;45.634;9.420;2023-02-12T12:54:54;100370.31;;;17.06;26.27
53270;BME280;39159;45.634;9.420;2023-02-12T12:57:42;100375.94;;;17.01;26.02
53270;BME280;39159;45.634;9.420;2023-02-12T13:06:06;100378.84;;;17.27;25.92
53270;BME280;39159;45.634;9.420;2023-02-12T13:11:37;100362.47;;;17.30;25.34
53270;BME280;39159;45.634;9.420;2023-02-12T13:17:03;100375.41;;;17.21;25.49
53270;BME280;39159;45.634;9.420;2023-02-12T13:22:12;100372.28;;;17.14;25.46
53270;BME280;39159;45.634;9.420;2023-02-12T13:24:48;100362.81;;;17.37;25.15
53270;BME280;39159;45.634;9.420;2023-02-12T13:27:21;100364.84;;;17.14;25.08
53270;BME280;39159;45.634;9.420;2023-02-12T13:29:51;100373.81;;;16.97;25.27
53270;BME280;39159;45.634;9.420;2023-02-12T13:32:27;100376.66;;;16.84;25.66
53270;BME280;39159;45.634;9.420;2023-02-12T13:34:55;100364.09;;;16.77;25.96
53270;BME280;39159;45.634;9.420;2023-02-12T13:37:42;100366.25;;;16.81;25.76
53270;BME280;39159;45.634;9.420;2023-02-12T13:40:18;100367.69;;;16.55;26.37
53270;BME280;39159;45.634;9.420;2023-02-12T13:42:49;100377.47;;;16.39;26.75
53270;BME280;39159;45.634;9.420;2023-02-12T13:56:11;100386.25;;;16.27;26.83
53270;BME280;39159;45.634;9.420;2023-02-12T13:58:53;100387.53;;;16.07;27.15
53270;BME280;39159;45.634;9.420;2023-02-12T14:01:44;100394.19;;;16.06;26.28
53270;BME280;39159;45.634;9.420;2023-02-12T14:04:25;100394.31;;;15.73;26.69
53270;BME280;39159;45.634;9.420;2023-02-12T14:07:04;100393.91;;;15.52;27.51
53270;BME280;39159;45.634;9.420;2023-02-12T14:12:05;100401.94;;;15.63;28.20
53270;BME280;39159;45.634;9.420;2023-02-12T14:14:36;100412.34;;;15.66;28.12
53270;BME280;39159;45.634;9.420;2023-02-12T14:30:25;100418.44;;;15.35;28.24
53270;BME280;39159;45.634;9.420;2023-02-12T14:37:52;100425.66;;;14.84;28.36
53270;BME280;39159;45.634;9.420;2023-02-12T14:43:01;100431.25;;;14.60;28.92
53270;BME280;39159;45.634;9.420;2023-02-12T14:45:44;100435.25;;;14.30;29.79
53270;BME280;39159;45.634;9.420;2023-02-12T14:51:19;100434.94;;;14.31;30.57
53270;BME280;39159;45.634;9.420;2023-02-12T14:53:47;100436.72;;;14.22;30.55
53270;BME280;39159;45.634;9.420;2023-02-12T14:56:19;100449.09;;;14.01;30.43
53270;BME280;39159;45.634;9.420;2023-02-12T14:58:45;100448.69;;;13.88;30.67
53270;BME280;39159;45.634;9.420;2023-02-12T15:01:11;100454.28;;;13.78;31.35
53270;BME280;39159;45.634;9.420;2023-02-12T15:06:20;100458.50;;;13.71;32.49
53270;BME280;39159;45.634;9.420;2023-02-12T15:08:57;100464.00;;;13.71;31.42
53270;BME280;39159;45.634;9.420;2023-02-12T15:14:06;100474.81;;;13.33;32.38
53270;BME280;39159;45.634;9.420;2023-02-12T15:16:43;100470.97;;;12.99;32.82
53270;BME280;39159;45.634;9.420;2023-02-12T15:22:17;100478.94;;;12.96;33.70
53270;BME280;39159;45.634;9.420;2023-02-12T15:24:43;100477.91;;;12.86;33.21
53270;BME280;39159;45.634;9.420;2023-02-12T15:27:13;100486.22;;;12.76;32.78
53270;BME280;39159;45.634;9.420;2023-02-12T15:29:40;100491.28;;;12.59;32.81
53270;BME280;39159;45.634;9.420;2023-02-12T15:32:13;100492.66;;;12.56;33.35
53270;BME280;39159;45.634;9.420;2023-02-12T15:34:40;100498.22;;;12.41;33.39
53270;BME280;39159;45.634;9.420;2023-02-12T15:37:07;100492.50;;;12.32;33.70
53270;BME280;39159;45.634;9.420;2023-02-12T15:39:39;100496.63;;;12.30;32.64
53270;BME280;39159;45.634;9.420;2023-02-12T15:45:21;100495.34;;;12.12;33.58
53270;BME280;39159;45.634;9.420;2023-02-12T15:48:51;100494.53;;;12.06;33.52
53270;BME280;39159;45.634;9.420;2023-02-12T15:53:40;100491.88;;;11.91;34.69
53270;BME280;39159;45.634;9.420;2023-02-12T15:56:11;100494.63;;;11.80;34.54
53270;BME280;39159;45.634;9.420;2023-02-12T15:58:49;100492.19;;;11.74;34.92
53270;BME280;39159;45.634;9.420;2023-02-12T16:01:19;100495.19;;;11.67;35.67
53270;BME280;39159;45.634;9.420;2023-02-12T16:03:49;100502.84;;;11.60;35.86
53270;BME280;39159;45.634;9.420;2023-02-12T16:06:16;100500.16;;;11.50;36.42